createdAt,value
2022-08-09T00:00:46.067Z,7.30
2022-08-09T00:01:48.336Z,7.50
2022-08-09T00:02:49.539Z,7.70
2022-08-09T00:04:10.140Z,6.90
2022-08-09T00:04:42.270Z,6.20
2022-08-09T00:06:17.602Z,5.60
2022-08-09T00:06:44.313Z,8.00
2022-08-09T00:07:44.540Z,6.60
2022-08-09T00:08:41.224Z,7.10
2022-08-09T00:09:41.232Z,6.50
2022-08-09T00:10:41.212Z,7.10
2022-08-09T00:12:02.634Z,8.80
2022-08-09T00:12:42.176Z,7.90
2022-08-09T00:13:41.154Z,9.20
2022-08-09T00:14:41.133Z,6.50
2022-08-09T00:15:59.339Z,7.40
2022-08-09T00:16:42.105Z,7.70
2022-08-09T00:18:07.739Z,8.10
2022-08-09T00:18:42.099Z,11.20
2022-08-09T00:19:41.065Z,8.90
2022-08-09T00:20:49.882Z,9.40
2022-08-09T00:21:55.514Z,9.10
2022-08-09T00:22:42.025Z,12.50
2022-08-09T00:23:58.182Z,10.70
2022-08-09T00:24:42.010Z,9.40
2022-08-09T00:25:40.988Z,6.70
2022-08-09T00:26:40.967Z,6.40
2022-08-09T00:27:43.321Z,8.10
2022-08-09T00:28:42.053Z,7.20
2022-08-09T00:30:24.689Z,6.90
2022-08-09T00:30:41.923Z,6.00
2022-08-09T00:31:59.846Z,7.10
2022-08-09T00:32:42.237Z,6.90
2022-08-09T00:33:51.084Z,6.20
2022-08-09T00:34:46.415Z,6.50
2022-08-09T00:35:42.831Z,8.00
2022-08-09T00:36:41.757Z,9.50
2022-08-09T00:37:40.836Z,8.30
2022-08-09T00:38:40.815Z,10.60
2022-08-09T00:40:09.819Z,9.10
2022-08-09T00:40:53.156Z,9.40
2022-08-09T00:44:10.023Z,9.90
2022-08-09T00:44:11.081Z,8.60
2022-08-09T00:44:15.995Z,8.20
2022-08-09T00:44:41.742Z,8.00
2022-08-09T00:45:50.544Z,8.10
2022-08-09T00:46:57.292Z,10.20
2022-08-09T00:47:41.698Z,7.40
2022-08-09T00:48:40.665Z,10.10
2022-08-09T00:49:41.677Z,8.70
2022-08-09T00:50:40.652Z,6.20
2022-08-09T00:51:42.637Z,8.00
2022-08-09T00:52:41.630Z,7.70
2022-08-09T00:53:40.606Z,7.50
2022-08-09T00:54:40.704Z,6.80
2022-08-09T00:56:04.622Z,5.60
2022-08-09T00:56:41.559Z,7.80
2022-08-09T00:57:40.562Z,7.40
2022-08-09T00:58:40.542Z,9.40
2022-08-09T00:59:46.313Z,6.70
2022-08-09T01:00:41.522Z,7.90
2022-08-09T01:01:45.207Z,9.70
2022-08-09T01:02:41.480Z,8.20
2022-08-09T01:03:45.502Z,9.10
2022-08-09T01:04:41.461Z,8.70
2022-08-09T01:05:51.604Z,8.50
2022-08-09T01:06:54.495Z,8.80
2022-08-09T01:08:00.877Z,8.00
2022-08-09T01:08:49.653Z,9.00
2022-08-09T01:09:41.383Z,6.50
2022-08-09T01:10:40.472Z,11.30
2022-08-09T01:11:40.374Z,9.30
2022-08-09T01:12:41.355Z,9.80
2022-08-09T01:13:53.316Z,10.60
2022-08-09T01:14:41.313Z,9.90
2022-08-09T01:15:40.902Z,11.60
2022-08-09T01:16:47.399Z,9.30
2022-08-09T01:17:41.289Z,10.40
2022-08-09T01:18:40.268Z,11.10
2022-08-09T01:19:51.729Z,8.70
2022-08-09T01:20:41.249Z,7.60
2022-08-09T01:21:41.293Z,9.60
2022-08-09T01:22:40.237Z,8.80
2022-08-09T01:24:01.929Z,8.90
2022-08-09T01:24:41.177Z,10.50
2022-08-09T01:25:41.660Z,8.80
2022-08-09T01:26:40.163Z,11.20
2022-08-09T01:27:40.137Z,9.90
2022-08-09T01:28:40.127Z,10.90
2022-08-09T01:29:52.805Z,9.90
2022-08-09T01:30:52.466Z,10.30
2022-08-09T01:32:31.246Z,8.70
2022-08-09T01:32:45.397Z,9.40
2022-08-09T01:33:41.066Z,8.10
2022-08-09T01:34:40.040Z,9.80
2022-08-09T01:35:42.290Z,8.60
2022-08-09T01:36:40.022Z,9.30
2022-08-09T01:38:05.908Z,9.00
2022-08-09T01:38:41.007Z,12.80
2022-08-09T01:39:41.019Z,9.10
2022-08-09T01:40:39.977Z,9.70
2022-08-09T01:41:53.540Z,9.10
2022-08-09T01:42:40.932Z,13.40
2022-08-09T01:43:41.950Z,8.10
2022-08-09T01:44:40.925Z,9.60
2022-08-09T01:45:45.951Z,10.70
2022-08-09T01:46:40.888Z,8.50
2022-08-09T01:47:44.705Z,12.50
2022-08-09T01:48:40.894Z,13.20
2022-08-09T01:49:40.006Z,9.70
2022-08-09T01:50:41.925Z,12.70
2022-08-09T01:51:42.719Z,10.20
2022-08-09T01:52:41.393Z,10.60
2022-08-09T01:53:39.795Z,9.70
2022-08-09T01:54:39.805Z,13.30
2022-08-09T01:55:39.780Z,12.60
2022-08-09T01:56:39.746Z,11.70
2022-08-09T01:57:40.048Z,14.30
2022-08-09T01:58:39.740Z,10.80
2022-08-09T01:59:40.896Z,12.30
2022-08-09T02:00:40.711Z,8.50
2022-08-09T02:01:59.961Z,12.80
2022-08-09T02:02:40.668Z,9.30
2022-08-09T02:03:39.672Z,8.10
2022-08-09T02:04:45.371Z,9.40
2022-08-09T02:06:04.038Z,10.70
2022-08-09T02:06:54.208Z,11.10
2022-08-09T02:08:40.945Z,10.50
2022-08-09T02:08:58.979Z,13.00
2022-08-09T02:09:42.070Z,10.10
2022-08-09T02:10:39.571Z,8.50
2022-08-09T02:11:42.071Z,8.80
2022-08-09T02:12:39.531Z,8.00
2022-08-09T02:13:40.615Z,7.70
2022-08-09T02:14:39.516Z,9.90
2022-08-09T02:15:49.574Z,8.50
2022-08-09T02:16:53.267Z,8.60
2022-08-09T02:18:01.066Z,9.90
2022-08-09T02:18:42.830Z,10.00
2022-08-09T02:19:43.022Z,9.70
2022-08-09T02:20:39.445Z,8.00
2022-08-09T02:21:39.415Z,7.40
2022-08-09T02:22:39.733Z,7.70
2022-08-09T02:23:39.862Z,9.50
2022-08-09T02:24:39.375Z,8.20
2022-08-09T02:25:42.641Z,9.90
2022-08-09T02:26:40.369Z,7.80
2022-08-09T02:27:57.305Z,10.70
2022-08-09T02:28:40.334Z,12.00
2022-08-09T02:29:39.326Z,10.90
2022-08-09T02:30:39.289Z,12.50
2022-08-09T02:31:39.301Z,16.80
2022-08-09T02:32:39.283Z,13.70
2022-08-09T02:34:06.650Z,14.50
2022-08-09T02:34:51.830Z,15.60
2022-08-09T02:36:03.315Z,17.90
2022-08-09T02:36:42.014Z,14.60
2022-08-09T02:37:39.220Z,10.90
2022-08-09T02:38:40.193Z,13.70
2022-08-09T02:39:41.950Z,9.70
2022-08-09T02:40:39.197Z,9.50
2022-08-09T02:41:39.150Z,10.60
2022-08-09T02:42:39.132Z,12.10
2022-08-09T02:43:53.521Z,11.60
2022-08-09T02:44:40.101Z,9.60
2022-08-09T02:45:39.113Z,11.80
2022-08-09T02:46:39.088Z,12.80
2022-08-09T02:47:58.036Z,8.40
2022-08-09T02:48:40.071Z,9.70
2022-08-09T02:49:41.549Z,8.80
2022-08-09T02:50:39.047Z,11.70
2022-08-09T02:51:40.417Z,9.70
2022-08-09T02:52:39.006Z,11.90
2022-08-09T02:53:38.984Z,12.60
2022-08-09T02:54:54.480Z,16.40
2022-08-09T02:55:57.730Z,14.10
2022-08-09T02:56:39.944Z,16.70
2022-08-09T02:57:40.498Z,21.90
2022-08-09T02:58:39.927Z,15.10
2022-08-09T02:59:38.906Z,29.40
2022-08-09T03:00:57.963Z,26.90
2022-08-09T03:01:58.667Z,19.80
2022-08-09T03:02:39.917Z,17.20
2022-08-09T03:04:18.165Z,14.00
2022-08-09T03:04:39.850Z,17.20
2022-08-09T03:05:38.817Z,12.80
2022-08-09T03:06:38.808Z,12.30
2022-08-09T03:07:38.802Z,12.00
2022-08-09T03:08:38.787Z,12.10
2022-08-09T03:09:42.772Z,12.90
2022-08-09T03:10:38.772Z,11.80
2022-08-09T03:12:06.473Z,12.40
2022-08-09T03:12:39.743Z,11.60
2022-08-09T03:13:43.471Z,12.70
2022-08-09T03:14:39.699Z,13.90
2022-08-09T03:15:40.513Z,12.70
2022-08-09T03:16:44.848Z,11.90
2022-08-09T03:17:39.665Z,11.80
2022-08-09T03:18:38.663Z,9.60
2022-08-09T03:19:58.168Z,10.50
2022-08-09T03:20:39.623Z,8.30
2022-08-09T03:21:39.784Z,8.70
2022-08-09T03:22:41.746Z,9.60
2022-08-09T03:23:39.573Z,11.60
2022-08-09T03:24:51.689Z,10.90
2022-08-09T03:25:59.427Z,13.90
2022-08-09T03:26:45.005Z,17.50
2022-08-09T03:27:45.115Z,11.70
2022-08-09T03:28:39.521Z,11.00
2022-08-09T03:29:56.897Z,10.40
2022-08-09T03:30:39.510Z,29.00
2022-08-09T03:31:42.450Z,410.10
2022-08-09T03:32:38.477Z,12.00
2022-08-09T03:33:54.370Z,51.50
2022-08-09T03:34:39.436Z,13.40
2022-08-09T03:36:13.844Z,9.90
2022-08-09T03:36:39.420Z,10.90
2022-08-09T03:37:55.289Z,14.40
2022-08-09T03:38:42.624Z,29.90
2022-08-09T03:39:38.442Z,171.70
2022-08-09T03:40:39.349Z,190.20
2022-08-09T03:41:45.715Z,426.20
2022-08-09T03:42:39.342Z,362.10
2022-08-09T03:43:38.307Z,388.50
2022-08-09T03:44:38.313Z,21.50
2022-08-09T03:46:04.592Z,63.20
2022-08-09T03:46:39.517Z,31.80
2022-08-09T03:47:41.839Z,126.20
2022-08-09T03:48:42.870Z,22.30
2022-08-09T03:49:39.238Z,16.50
2022-08-09T03:50:39.233Z,24.20
2022-08-09T03:51:57.122Z,31.30
2022-08-09T03:52:39.192Z,24.70
2022-08-09T03:53:38.185Z,23.30
2022-08-09T03:54:38.414Z,20.90
2022-08-09T03:55:40.692Z,20.30
2022-08-09T03:56:38.153Z,21.90
2022-08-09T03:57:53.515Z,25.00
2022-08-09T03:58:39.103Z,18.40
2022-08-09T03:59:53.005Z,31.80
2022-08-09T04:00:39.152Z,24.90
2022-08-09T04:01:38.068Z,21.70
2022-08-09T04:02:38.069Z,20.00
2022-08-09T04:03:46.189Z,22.20
2022-08-09T04:04:39.123Z,16.20
2022-08-09T04:05:40.503Z,20.90
2022-08-09T04:06:37.997Z,19.70
2022-08-09T04:07:53.186Z,19.00
2022-08-09T04:08:38.968Z,16.00
2022-08-09T04:09:48.276Z,22.70
2022-08-09T04:10:38.952Z,25.70
2022-08-09T04:11:37.928Z,24.60
2022-08-09T04:12:37.933Z,20.20
2022-08-09T04:14:37.214Z,15.90
2022-08-09T04:15:01.028Z,17.80
2022-08-09T04:16:18.667Z,17.40
2022-08-09T04:16:38.858Z,17.80
2022-08-09T04:17:37.862Z,19.50
2022-08-09T04:18:37.843Z,15.10
2022-08-09T04:19:42.857Z,14.70
2022-08-09T04:20:38.824Z,14.40
2022-08-09T04:21:40.159Z,15.20
2022-08-09T04:22:41.224Z,16.30
2022-08-09T04:23:38.775Z,16.80
2022-08-09T04:24:37.764Z,14.80
2022-08-09T04:25:37.731Z,13.90
2022-08-09T04:26:38.269Z,13.30
2022-08-09T04:27:37.972Z,12.30
2022-08-09T04:28:42.549Z,15.50
2022-08-09T04:29:38.694Z,14.50
2022-08-09T04:30:37.684Z,15.70
2022-08-09T04:31:47.295Z,16.40
2022-08-09T04:32:38.923Z,17.70
2022-08-09T04:33:47.349Z,23.00
2022-08-09T04:34:38.615Z,16.10
2022-08-09T04:35:38.610Z,10.80
2022-08-09T04:36:38.868Z,14.70
2022-08-09T04:37:46.055Z,17.60
2022-08-09T04:38:38.579Z,16.70
2022-08-09T04:39:40.517Z,13.80
2022-08-09T04:40:37.526Z,14.70
2022-08-09T04:41:43.698Z,13.20
2022-08-09T04:42:38.531Z,11.00
2022-08-09T04:43:37.486Z,12.20
2022-08-09T04:44:38.492Z,15.70
2022-08-09T04:45:53.182Z,13.40
2022-08-09T04:46:59.517Z,12.30
2022-08-09T04:47:58.720Z,11.30
2022-08-09T04:48:38.530Z,16.30
2022-08-09T04:49:52.495Z,12.60
2022-08-09T04:50:38.430Z,14.00
2022-08-09T04:51:37.369Z,14.60
2022-08-09T04:52:37.745Z,13.50
2022-08-09T04:53:37.350Z,11.90
2022-08-09T04:54:37.378Z,13.20
2022-08-09T04:55:41.020Z,11.80
2022-08-09T04:56:38.326Z,12.20
2022-08-09T04:57:59.449Z,12.10
2022-08-09T04:58:38.282Z,14.50
2022-08-09T04:59:37.277Z,13.40
2022-08-09T05:00:37.282Z,12.10
2022-08-09T05:01:37.254Z,12.60
2022-08-09T05:02:37.245Z,13.30
2022-08-09T05:03:43.146Z,14.20
2022-08-09T05:04:38.242Z,12.10
2022-08-09T05:05:52.759Z,12.40
2022-08-09T05:06:38.175Z,11.90
2022-08-09T05:07:37.168Z,11.30
2022-08-09T05:08:37.153Z,11.10
2022-08-09T05:09:45.514Z,12.10
2022-08-09T05:10:38.146Z,13.20
2022-08-09T05:11:37.125Z,14.20
2022-08-09T05:12:37.349Z,15.80
2022-08-09T05:13:38.682Z,12.20
2022-08-09T05:14:37.067Z,15.60
2022-08-09T05:15:39.370Z,12.40
2022-08-09T05:16:58.324Z,12.60
2022-08-09T05:18:50.351Z,13.20
2022-08-09T05:18:58.256Z,15.20
2022-08-09T05:19:46.002Z,14.70
2022-08-09T05:20:38.002Z,14.10
2022-08-09T05:21:46.827Z,16.10
2022-08-09T05:23:55.467Z,16.00
2022-08-09T05:23:55.528Z,16.10
2022-08-09T05:24:37.930Z,15.20
2022-08-09T05:25:36.938Z,16.70
2022-08-09T05:26:46.246Z,13.90
2022-08-09T05:27:45.542Z,14.20
2022-08-09T05:28:37.984Z,14.20
2022-08-09T05:29:36.867Z,12.30
2022-08-09T05:30:36.863Z,15.80
2022-08-09T05:31:46.762Z,12.80
2022-08-09T05:32:37.838Z,13.60
2022-08-09T05:33:36.801Z,14.00
2022-08-09T05:34:37.792Z,13.00
2022-08-09T05:35:38.926Z,12.60
2022-08-09T05:36:37.763Z,12.20
2022-08-09T05:37:38.247Z,11.90
2022-08-09T05:38:39.065Z,11.10
2022-08-09T05:39:42.463Z,12.00
2022-08-09T05:40:37.728Z,13.30
2022-08-09T05:41:36.694Z,11.10
2022-08-09T05:42:36.909Z,11.30
2022-08-09T05:43:36.680Z,10.40
2022-08-09T05:44:36.678Z,10.40
2022-08-09T05:45:52.676Z,10.30
2022-08-09T05:46:37.626Z,10.10
2022-08-09T05:47:36.627Z,9.80
2022-08-09T05:48:37.606Z,10.30
2022-08-09T05:50:34.947Z,10.10
2022-08-09T05:50:51.263Z,10.50
2022-08-09T05:51:45.955Z,9.40
2022-08-09T05:52:38.476Z,10.20
2022-08-09T05:53:57.054Z,10.00
2022-08-09T05:54:37.548Z,10.70
2022-08-09T05:55:36.533Z,9.70
2022-08-09T05:56:36.497Z,12.30
2022-08-09T05:57:51.178Z,9.80
2022-08-09T05:58:37.483Z,9.80
2022-08-09T05:59:36.451Z,10.10
2022-08-09T06:00:36.448Z,8.80
2022-08-09T06:01:42.883Z,9.40
2022-08-09T06:02:37.471Z,8.60
2022-08-09T06:03:44.077Z,8.70
2022-08-09T06:04:37.405Z,12.20
2022-08-09T06:05:56.858Z,9.30
2022-08-09T06:06:37.363Z,9.00
2022-08-09T06:07:36.356Z,9.90
2022-08-09T06:08:36.332Z,9.10
2022-08-09T06:09:54.840Z,8.90
2022-08-09T06:10:37.327Z,8.90
2022-08-09T06:11:40.954Z,8.80
2022-08-09T06:12:37.600Z,9.20
2022-08-09T06:13:36.264Z,9.50
2022-08-09T06:14:36.261Z,10.40
2022-08-09T06:15:36.253Z,8.40
2022-08-09T06:16:36.226Z,8.20
2022-08-09T06:17:39.051Z,8.00
2022-08-09T06:18:36.486Z,8.50
2022-08-09T06:19:36.176Z,11.40
2022-08-09T06:20:36.300Z,10.60
2022-08-09T06:21:36.157Z,9.20
2022-08-09T06:22:37.345Z,10.00
2022-08-09T06:23:57.460Z,7.90
2022-08-09T06:24:37.119Z,8.80
2022-08-09T06:25:36.112Z,9.40
2022-08-09T06:26:36.222Z,7.80
2022-08-09T06:27:42.580Z,9.90
2022-08-09T06:28:37.081Z,8.30
2022-08-09T06:29:58.580Z,7.10
2022-08-09T06:30:37.037Z,8.70
2022-08-09T06:31:40.329Z,7.90
2022-08-09T06:33:00.779Z,10.20
2022-08-09T06:33:41.012Z,7.60
2022-08-09T06:34:35.990Z,7.30
2022-08-09T06:35:57.048Z,11.00
2022-08-09T06:36:36.955Z,7.30
2022-08-09T06:37:52.859Z,7.90
2022-08-09T06:38:37.742Z,7.70
2022-08-09T06:39:39.694Z,7.40
2022-08-09T06:40:36.945Z,7.10
2022-08-09T06:42:00.467Z,7.90
2022-08-09T06:42:44.706Z,9.20
2022-08-09T06:43:36.868Z,9.50
2022-08-09T06:44:35.865Z,9.30
2022-08-09T06:46:07.843Z,6.70
2022-08-09T06:46:39.602Z,7.00
2022-08-09T06:47:40.033Z,6.70
2022-08-09T06:48:36.794Z,8.30
2022-08-09T06:50:11.343Z,7.40
2022-08-09T06:50:36.778Z,6.30
2022-08-09T06:51:39.149Z,6.80
2022-08-09T06:52:35.750Z,6.60
2022-08-09T06:53:38.525Z,8.10
2022-08-09T06:54:35.709Z,7.00
2022-08-09T06:55:35.703Z,9.60
2022-08-09T06:56:35.680Z,7.60
2022-08-09T06:58:01.626Z,7.20
2022-08-09T07:00:48.598Z,6.80
2022-08-09T07:00:51.955Z,5.50
2022-08-09T07:00:56.359Z,7.00
2022-08-09T07:01:57.782Z,7.90
2022-08-09T07:02:36.828Z,5.20
2022-08-09T07:03:39.279Z,5.40
2022-08-09T07:04:36.706Z,7.30
2022-08-09T07:06:02.269Z,7.60
2022-08-09T07:06:36.543Z,5.70
2022-08-09T07:07:58.629Z,5.10
2022-08-09T07:08:37.289Z,6.50
2022-08-09T07:09:55.865Z,7.10
2022-08-09T07:10:36.618Z,6.90
2022-08-09T07:11:52.240Z,6.70
2022-08-09T07:12:38.740Z,7.30
2022-08-09T07:13:45.562Z,6.10
2022-08-09T07:14:36.436Z,6.70
2022-08-09T07:16:39.377Z,5.60
2022-08-09T07:16:42.046Z,6.50
2022-08-09T07:17:39.665Z,5.90
2022-08-09T07:18:35.399Z,6.50
2022-08-09T07:19:35.372Z,5.40
2022-08-09T07:20:35.349Z,9.00
2022-08-09T07:21:35.363Z,7.90
2022-08-09T07:22:36.323Z,8.30
2022-08-09T07:23:36.457Z,7.70
2022-08-09T07:24:40.503Z,7.00
2022-08-09T07:25:38.819Z,7.90
2022-08-09T07:26:36.402Z,5.20
2022-08-09T07:27:42.683Z,5.20
2022-08-09T07:28:36.241Z,5.70
2022-08-09T07:29:38.069Z,4.70
2022-08-09T07:30:36.226Z,6.70
2022-08-09T07:31:38.112Z,4.90
2022-08-09T07:32:35.305Z,6.40
2022-08-09T07:33:53.057Z,5.00
2022-08-09T07:34:36.163Z,6.70
2022-08-09T07:35:53.437Z,5.40
2022-08-09T07:36:36.149Z,5.90
2022-08-09T07:37:42.972Z,3.70
2022-08-09T07:38:36.106Z,8.30
2022-08-09T07:39:40.812Z,5.40
2022-08-09T07:40:54.061Z,4.90
2022-08-09T07:41:38.782Z,5.80
2022-08-09T07:42:35.193Z,8.80
2022-08-09T07:43:50.117Z,5.50
2022-08-09T07:44:51.798Z,6.40
2022-08-09T07:45:39.532Z,6.00
2022-08-09T07:46:35.007Z,4.10
2022-08-09T07:47:49.388Z,3.90
2022-08-09T07:48:36.088Z,6.00
2022-08-09T07:49:34.981Z,4.40
2022-08-09T07:50:36.857Z,5.80
2022-08-09T07:52:05.315Z,4.90
2022-08-09T07:52:36.057Z,6.80
2022-08-09T07:53:36.480Z,4.20
2022-08-09T07:54:35.913Z,4.40
2022-08-09T07:55:41.432Z,7.10
2022-08-09T07:56:49.766Z,4.80
2022-08-09T07:57:36.378Z,7.20
2022-08-09T07:58:34.832Z,5.00
2022-08-09T07:59:51.004Z,6.70
2022-08-09T08:00:36.789Z,6.70
2022-08-09T08:01:35.846Z,5.80
2022-08-09T08:02:35.198Z,4.90
2022-08-09T08:03:37.006Z,5.00
2022-08-09T08:04:34.798Z,4.50
2022-08-09T08:05:39.081Z,5.90
2022-08-09T08:06:35.726Z,7.10
2022-08-09T08:08:43.437Z,6.20
2022-08-09T08:09:01.672Z,6.60
2022-08-09T08:09:45.189Z,5.70
2022-08-09T08:10:35.677Z,5.60
2022-08-09T08:12:24.002Z,6.90
2022-08-09T08:12:35.761Z,4.10
2022-08-09T08:13:38.221Z,5.50
2022-08-09T08:14:35.635Z,4.40
2022-08-09T08:15:35.343Z,6.60
2022-08-09T08:16:34.779Z,4.50
2022-08-09T08:17:54.133Z,6.80
2022-08-09T08:18:35.567Z,7.90
2022-08-09T08:19:34.580Z,3.50
2022-08-09T08:20:34.622Z,6.50
2022-08-09T08:21:34.557Z,5.80
2022-08-09T08:22:35.526Z,4.90
2022-08-09T08:23:34.981Z,4.00
2022-08-09T08:24:39.900Z,5.70
2022-08-09T08:25:43.866Z,7.30
2022-08-09T08:26:41.968Z,5.30
2022-08-09T08:27:40.737Z,5.00
2022-08-09T08:28:35.458Z,4.50
2022-08-09T08:29:39.507Z,5.00
2022-08-09T08:30:35.420Z,7.80
2022-08-09T08:31:39.615Z,6.00
2022-08-09T08:32:35.617Z,5.40
2022-08-09T08:33:52.131Z,3.70
2022-08-09T08:34:36.626Z,9.20
2022-08-09T08:35:37.099Z,4.90
2022-08-09T08:36:35.351Z,6.60
2022-08-09T08:37:41.898Z,4.00
2022-08-09T08:38:35.313Z,5.10
2022-08-09T08:39:39.776Z,6.70
2022-08-09T08:40:35.270Z,4.80
2022-08-09T08:41:50.457Z,3.80
2022-08-09T08:42:35.576Z,6.80
2022-08-09T08:43:34.231Z,4.20
2022-08-09T08:44:34.233Z,5.60
2022-08-09T08:45:37.327Z,4.90
2022-08-09T08:46:59.850Z,8.10
2022-08-09T08:47:38.571Z,5.00
2022-08-09T08:48:35.273Z,3.30
2022-08-09T08:49:46.291Z,8.60
2022-08-09T08:50:35.159Z,4.40
2022-08-09T08:51:41.693Z,3.90
2022-08-09T08:53:37.319Z,5.90
2022-08-09T08:54:34.095Z,3.50
2022-08-09T08:55:34.091Z,6.50
2022-08-09T08:56:34.070Z,4.40
2022-08-09T08:57:35.511Z,3.90
2022-08-09T08:58:36.041Z,5.70
2022-08-09T08:59:46.529Z,4.40
2022-08-09T09:00:35.118Z,5.40
2022-08-09T09:01:44.679Z,5.30
2022-08-09T09:02:35.485Z,6.30
2022-08-09T09:03:37.477Z,4.20
2022-08-09T09:04:41.563Z,6.60
2022-08-09T09:06:00.732Z,6.40
2022-08-09T09:06:34.922Z,6.30
2022-08-09T09:07:36.749Z,7.50
2022-08-09T09:08:41.070Z,4.00
2022-08-09T09:09:58.600Z,4.30
2022-08-09T09:10:34.884Z,4.60
2022-08-09T09:11:33.960Z,4.50
2022-08-09T09:12:34.341Z,6.10
2022-08-09T09:13:41.931Z,5.40
2022-08-09T09:14:34.829Z,3.80
2022-08-09T09:15:33.805Z,4.40
2022-08-09T09:16:35.152Z,4.10
2022-08-09T09:17:49.256Z,4.30
2022-08-09T09:18:34.756Z,5.10
2022-08-09T09:19:42.007Z,6.00
2022-08-09T09:20:34.738Z,4.40
2022-08-09T09:21:43.034Z,4.30
2022-08-09T09:22:35.076Z,5.50
2022-08-09T09:23:37.551Z,4.60
2022-08-09T09:24:33.695Z,3.20
2022-08-09T09:26:03.467Z,3.00
2022-08-09T09:26:34.662Z,5.30
2022-08-09T09:28:03.972Z,3.80
2022-08-09T09:28:39.062Z,3.80
2022-08-09T09:29:57.953Z,5.40
2022-08-09T09:30:41.975Z,4.80
2022-08-09T09:32:06.921Z,4.80
2022-08-09T09:32:35.565Z,3.50
2022-08-09T09:33:44.625Z,5.60
2022-08-09T09:34:34.553Z,4.90
2022-08-09T09:35:33.557Z,3.40
2022-08-09T09:36:34.564Z,4.30
2022-08-09T09:37:33.536Z,3.90
2022-08-09T09:38:37.133Z,4.40
2022-08-09T09:39:54.875Z,5.50
2022-08-09T09:40:34.530Z,3.70
2022-08-09T09:41:49.359Z,4.20
2022-08-09T09:42:34.687Z,3.60
2022-08-09T09:43:41.698Z,5.80
2022-08-09T09:44:34.431Z,4.90
2022-08-09T09:45:56.433Z,3.20
2022-08-09T09:46:51.765Z,3.90
2022-08-09T09:47:37.957Z,5.00
2022-08-09T09:48:34.369Z,3.70
2022-08-09T09:50:07.498Z,5.60
2022-08-09T09:50:34.361Z,3.40
2022-08-09T09:51:38.307Z,3.80
2022-08-09T09:52:37.173Z,5.90
2022-08-09T09:53:44.193Z,2.90
2022-08-09T09:54:34.282Z,4.90
2022-08-09T09:55:33.623Z,5.10
2022-08-09T09:56:33.706Z,5.60
2022-08-09T09:58:03.391Z,3.70
2022-08-09T09:58:34.249Z,3.70
2022-08-09T09:59:35.549Z,7.30
2022-08-09T10:00:33.623Z,3.50
2022-08-09T10:01:38.207Z,5.00
2022-08-09T10:02:34.369Z,5.30
2022-08-09T10:03:33.248Z,4.00
2022-08-09T10:04:33.184Z,2.70
2022-08-09T10:06:04.240Z,5.00
2022-08-09T10:06:34.117Z,3.80
2022-08-09T10:07:33.283Z,4.70
2022-08-09T10:08:54.561Z,2.20
2022-08-09T10:09:34.101Z,4.60
2022-08-09T10:10:34.285Z,2.70
2022-08-09T10:11:54.060Z,2.50
2022-08-09T10:12:34.052Z,5.20
2022-08-09T10:13:43.130Z,4.00
2022-08-09T10:14:34.107Z,4.60
2022-08-09T10:16:08.801Z,5.60
2022-08-09T10:16:56.563Z,3.80
2022-08-09T10:17:50.829Z,7.20
2022-08-09T10:18:33.954Z,3.70
2022-08-09T10:19:32.966Z,6.40
2022-08-09T10:20:44.513Z,5.90
2022-08-09T10:21:33.934Z,3.80
2022-08-09T10:22:33.718Z,4.40
2022-08-09T10:23:32.894Z,3.60
2022-08-09T10:24:36.102Z,4.00
2022-08-09T10:25:34.661Z,3.10
2022-08-09T10:26:33.846Z,3.80
2022-08-09T10:27:34.655Z,3.90
2022-08-09T10:28:33.816Z,3.20
2022-08-09T10:30:49.467Z,2.50
2022-08-09T10:32:20.968Z,6.10
2022-08-09T10:32:37.578Z,2.80
2022-08-09T10:32:42.532Z,5.00
2022-08-09T10:34:08.977Z,4.10
2022-08-09T10:34:36.033Z,2.40
2022-08-09T10:35:32.751Z,4.10
2022-08-09T10:36:32.752Z,4.40
2022-08-09T10:37:32.814Z,4.40
2022-08-09T10:38:55.999Z,3.50
2022-08-09T10:39:40.655Z,3.50
2022-08-09T10:40:39.012Z,6.50
2022-08-09T10:41:33.689Z,3.60
2022-08-09T10:42:32.788Z,4.50
2022-08-09T10:43:46.669Z,3.10
2022-08-09T10:44:33.616Z,3.50
2022-08-09T10:45:35.669Z,3.60
2022-08-09T10:46:33.599Z,3.30
2022-08-09T10:48:26.183Z,3.90
2022-08-09T10:48:33.565Z,5.40
2022-08-09T10:49:42.510Z,4.50
2022-08-09T10:50:33.551Z,3.80
2022-08-09T10:51:41.356Z,3.10
2022-08-09T10:52:33.748Z,3.60
2022-08-09T10:53:38.091Z,4.80
2022-08-09T10:54:33.480Z,2.80
2022-08-09T10:55:49.373Z,4.70
2022-08-09T10:56:33.451Z,3.30
2022-08-09T10:57:32.625Z,3.50
2022-08-09T10:58:33.932Z,4.00
2022-08-09T10:59:55.504Z,3.40
2022-08-09T11:00:33.425Z,2.70
2022-08-09T11:03:06.821Z,7.20
2022-08-09T11:03:14.430Z,3.30
2022-08-09T11:03:49.600Z,3.30
2022-08-09T11:04:33.449Z,3.00
2022-08-09T11:05:32.389Z,2.80
2022-08-09T11:06:32.323Z,7.80
2022-08-09T11:07:57.241Z,3.40
2022-08-09T11:08:33.486Z,3.10
2022-08-09T11:09:36.684Z,4.80
2022-08-09T11:10:32.288Z,3.60
2022-08-09T11:11:32.265Z,7.00
2022-08-09T11:12:32.518Z,3.10
2022-08-09T11:13:49.875Z,2.50
2022-08-09T11:14:33.216Z,5.20
2022-08-09T11:15:34.214Z,5.80
2022-08-09T11:16:35.097Z,5.80
2022-08-09T11:17:32.212Z,5.60
2022-08-09T11:18:32.182Z,14.70
2022-08-09T11:20:07.998Z,21.20
2022-08-09T11:20:33.139Z,5.90
2022-08-09T11:21:32.143Z,5.10
2022-08-09T11:22:32.126Z,2.20
2022-08-09T11:23:32.111Z,2.80
2022-08-09T11:24:32.104Z,4.00
2022-08-09T11:25:44.889Z,2.90
2022-08-09T11:26:33.062Z,3.00
2022-08-09T11:28:05.433Z,5.60
2022-08-09T11:28:34.663Z,2.80
2022-08-09T11:30:03.963Z,2.80
2022-08-09T11:30:34.300Z,5.30
2022-08-09T11:31:36.398Z,2.70
2022-08-09T11:32:32.080Z,4.40
2022-08-09T11:33:31.973Z,4.20
2022-08-09T11:34:31.956Z,5.10
2022-08-09T11:35:35.351Z,6.50
2022-08-09T11:36:35.647Z,1.60
2022-08-09T11:37:40.918Z,3.00
2022-08-09T11:38:33.945Z,3.80
2022-08-09T11:39:33.444Z,2.60
2022-08-09T11:40:32.896Z,3.20
2022-08-09T11:41:37.495Z,4.40
2022-08-09T11:42:33.104Z,1.70
2022-08-09T11:43:32.044Z,6.90
2022-08-09T11:44:31.830Z,2.60
2022-08-09T11:45:37.902Z,3.30
2022-08-09T11:46:33.746Z,3.30
2022-08-09T11:47:31.785Z,3.50
2022-08-09T11:48:31.935Z,3.60
2022-08-09T11:49:42.822Z,4.00
2022-08-09T11:50:53.735Z,3.80
2022-08-09T11:52:48.718Z,2.50
2022-08-09T11:52:56.559Z,4.10
2022-08-09T11:53:57.989Z,3.80
2022-08-09T11:54:33.733Z,2.80
2022-08-09T11:55:35.025Z,2.70
2022-08-09T11:56:41.572Z,2.60
2022-08-09T11:58:00.428Z,3.00
2022-08-09T11:58:33.785Z,2.60
2022-08-09T11:59:33.735Z,5.40
2022-08-09T12:00:31.753Z,2.60
2022-08-09T12:01:37.856Z,3.40
2022-08-09T12:02:37.380Z,2.40
2022-08-09T12:03:55.888Z,5.40
2022-08-09T12:04:37.986Z,4.60
2022-08-09T12:05:37.596Z,2.60
2022-08-09T12:06:35.076Z,4.60
2022-08-09T12:07:34.363Z,4.00
2022-08-09T12:08:32.523Z,4.50
2022-08-09T12:09:33.594Z,3.10
2022-08-09T12:10:38.361Z,3.70
2022-08-09T12:11:37.963Z,2.80
2022-08-09T12:12:32.479Z,3.00
2022-08-09T12:14:09.251Z,4.10
2022-08-09T12:14:36.764Z,2.50
2022-08-09T12:15:49.712Z,5.90
2022-08-09T12:16:38.118Z,1.90
2022-08-09T12:17:43.377Z,3.50
2022-08-09T12:18:33.666Z,2.30
2022-08-09T12:19:31.372Z,3.80
2022-08-09T12:20:31.380Z,3.30
2022-08-09T12:21:37.222Z,3.30
2022-08-09T12:22:32.541Z,4.10
2022-08-09T12:24:57.944Z,4.50
2022-08-09T12:25:02.894Z,2.20
2022-08-09T12:26:02.861Z,2.50
2022-08-09T12:29:14.624Z,3.30
2022-08-09T12:30:36.665Z,3.10
2022-08-09T12:30:36.687Z,2.70
2022-08-09T12:31:58.313Z,2.90
2022-08-09T12:32:16.488Z,2.80
2022-08-09T12:33:15.510Z,1.60
2022-08-09T12:34:15.468Z,3.70
2022-08-09T12:35:19.328Z,4.20
2022-08-09T12:36:32.372Z,6.10
2022-08-09T12:37:23.581Z,2.00
2022-08-09T12:38:16.397Z,1.70
2022-08-09T12:39:16.496Z,3.50
2022-08-09T12:40:15.391Z,4.10
2022-08-09T12:41:15.358Z,2.60
2022-08-09T12:42:16.262Z,2.60
2022-08-09T12:43:15.330Z,3.10
2022-08-09T12:44:15.329Z,2.50
2022-08-09T12:45:34.323Z,3.10
2022-08-09T12:46:16.300Z,2.90
2022-08-09T12:47:15.303Z,4.80
2022-08-09T12:48:31.001Z,8.10
2022-08-09T12:49:16.260Z,4.80
2022-08-09T12:50:47.882Z,1.90
2022-08-09T12:51:30.363Z,3.10
2022-08-09T12:52:16.223Z,2.30
2022-08-09T12:53:19.393Z,2.70
2022-08-09T12:56:02.349Z,2.60
2022-08-09T12:56:12.574Z,5.30
2022-08-09T12:56:39.847Z,4.20
2022-08-09T12:57:16.165Z,5.10
2022-08-09T12:58:24.026Z,4.50
2022-08-09T12:59:16.148Z,3.30
2022-08-09T13:00:15.145Z,4.10
2022-08-09T13:01:31.727Z,1.70
2022-08-09T13:02:15.322Z,4.80
2022-08-09T13:04:37.072Z,4.40
2022-08-09T13:04:38.967Z,6.20
2022-08-09T13:08:12.237Z,7.20
2022-08-09T13:08:21.307Z,3.20
2022-08-09T13:09:18.735Z,3.70
2022-08-09T13:28:08.082Z,1.90
2022-08-09T13:28:18.690Z,3.70
2022-08-09T15:07:35.289Z,2.50
2022-08-09T15:07:40.299Z,3.40
2022-08-09T15:08:41.318Z,2.80
2022-08-09T15:10:07.802Z,6.10